Terminal Aerodrome Forecast
Issued by NWS

Home | Current Version | Previous Version | Text Only | Print | Product List | Glossary On
Versions: 1 2 3 4 5 6 7 8 9 10 11 12 13 14 15 16 17 18 19 20 21 22 23 24 25 26 27
000
FTUS41 KBOX 180828 AAF
TAFBED
TAF AMD
KBED 180828Z 1808/1906 VRB03KT 2SM -SN BR OVC004
     FM181000 32004KT 4SM -SN OVC010
     FM181200 31005KT P6SM BKN020
     FM181300 31010KT P6SM FEW050
     FM181500 32014G24KT P6SM SKC
     FM181900 30010KT P6SM FEW250
     FM190100 00000KT P6SM SKC=

USA.gov is the U.S. government's official web portal to all federal, state and local government web resources and services.